sensor_id;sensor_type;location;lat;lon;timestamp;P1;durP1;ratioP1;P2;durP2;ratioP2
54849;SDS011;47660;51.334;12.396;2023-02-12T00:00:49;23.05;;;9.13;;
54849;SDS011;47660;51.334;12.396;2023-02-12T00:03:17;23.67;;;8.60;;
54849;SDS011;47660;51.334;12.396;2023-02-12T00:05:43;27.10;;;10.18;;
54849;SDS011;47660;51.334;12.396;2023-02-12T00:08:11;23.40;;;9.02;;
54849;SDS011;47660;51.334;12.396;2023-02-12T00:10:41;17.48;;;7.90;;
54849;SDS011;47660;51.334;12.396;2023-02-12T00:13:11;31.33;;;11.18;;
54849;SDS011;47660;51.334;12.396;2023-02-12T00:15:40;23.25;;;9.48;;
54849;SDS011;47660;51.334;12.396;2023-02-12T00:18:06;17.48;;;7.22;;
54849;SDS011;47660;51.334;12.396;2023-02-12T00:20:32;19.92;;;8.20;;
54849;SDS011;47660;51.334;12.396;2023-02-12T00:23:00;24.08;;;8.75;;
54849;SDS011;47660;51.334;12.396;2023-02-12T00:25:25;26.60;;;9.38;;
54849;SDS011;47660;51.334;12.396;2023-02-12T00:27:51;23.45;;;9.32;;
54849;SDS011;47660;51.334;12.396;2023-02-12T00:30:16;27.45;;;9.65;;
54849;SDS011;47660;51.334;12.396;2023-02-12T00:32:45;19.08;;;8.10;;
54849;SDS011;47660;51.334;12.396;2023-02-12T00:35:13;15.25;;;7.35;;
54849;SDS011;47660;51.334;12.396;2023-02-12T00:37:41;24.13;;;9.88;;
54849;SDS011;47660;51.334;12.396;2023-02-12T00:40:07;18.75;;;7.95;;
54849;SDS011;47660;51.334;12.396;2023-02-12T00:42:32;20.08;;;8.98;;
54849;SDS011;47660;51.334;12.396;2023-02-12T00:44:58;22.45;;;9.23;;
54849;SDS011;47660;51.334;12.396;2023-02-12T00:47:23;20.02;;;8.13;;
54849;SDS011;47660;51.334;12.396;2023-02-12T00:49:49;25.02;;;8.95;;
54849;SDS011;47660;51.334;12.396;2023-02-12T00:52:14;23.33;;;9.20;;
54849;SDS011;47660;51.334;12.396;2023-02-12T00:54:40;20.58;;;8.02;;
54849;SDS011;47660;51.334;12.396;2023-02-12T00:57:05;22.15;;;8.77;;
54849;SDS011;47660;51.334;12.396;2023-02-12T00:59:31;20.15;;;9.57;;
54849;SDS011;47660;51.334;12.396;2023-02-12T01:01:58;18.15;;;8.07;;
54849;SDS011;47660;51.334;12.396;2023-02-12T01:04:24;31.30;;;10.15;;
54849;SDS011;47660;51.334;12.396;2023-02-12T01:06:51;16.42;;;8.07;;
54849;SDS011;47660;51.334;12.396;2023-02-12T01:09:17;19.98;;;7.57;;
54849;SDS011;47660;51.334;12.396;2023-02-12T01:11:42;19.23;;;8.55;;
54849;SDS011;47660;51.334;12.396;2023-02-12T01:14:08;20.85;;;9.23;;
54849;SDS011;47660;51.334;12.396;2023-02-12T01:16:34;14.63;;;6.95;;
54849;SDS011;47660;51.334;12.396;2023-02-12T01:19:03;25.05;;;8.20;;
54849;SDS011;47660;51.334;12.396;2023-02-12T01:21:29;14.50;;;5.32;;
54849;SDS011;47660;51.334;12.396;2023-02-12T01:23:57;21.58;;;9.00;;
54849;SDS011;47660;51.334;12.396;2023-02-12T01:26:23;15.85;;;6.45;;
54849;SDS011;47660;51.334;12.396;2023-02-12T01:28:50;24.33;;;9.02;;
54849;SDS011;47660;51.334;12.396;2023-02-12T01:31:22;20.58;;;7.20;;
54849;SDS011;47660;51.334;12.396;2023-02-12T01:33:50;15.50;;;6.50;;
54849;SDS011;47660;51.334;12.396;2023-02-12T01:36:17;18.95;;;7.15;;
54849;SDS011;47660;51.334;12.396;2023-02-12T01:38:43;21.05;;;6.25;;
54849;SDS011;47660;51.334;12.396;2023-02-12T01:41:12;21.20;;;7.75;;
54849;SDS011;47660;51.334;12.396;2023-02-12T01:43:39;17.08;;;7.25;;
54849;SDS011;47660;51.334;12.396;2023-02-12T01:46:05;15.70;;;7.72;;
54849;SDS011;47660;51.334;12.396;2023-02-12T01:48:36;23.02;;;9.43;;
54849;SDS011;47660;51.334;12.396;2023-02-12T01:51:06;13.82;;;6.88;;
54849;SDS011;47660;51.334;12.396;2023-02-12T01:53:36;16.83;;;7.45;;
54849;SDS011;47660;51.334;12.396;2023-02-12T01:56:07;22.00;;;7.93;;
54849;SDS011;47660;51.334;12.396;2023-02-12T01:58:34;22.95;;;9.02;;
54849;SDS011;47660;51.334;12.396;2023-02-12T02:01:07;21.38;;;8.57;;
54849;SDS011;47660;51.334;12.396;2023-02-12T02:03:35;23.27;;;8.70;;
54849;SDS011;47660;51.334;12.396;2023-02-12T02:06:24;11.27;;;6.40;;
54849;SDS011;47660;51.334;12.396;2023-02-12T02:08:56;17.27;;;8.07;;
54849;SDS011;47660;51.334;12.396;2023-02-12T02:11:28;13.68;;;5.95;;
54849;SDS011;47660;51.334;12.396;2023-02-12T02:14:12;19.02;;;6.05;;
54849;SDS011;47660;51.334;12.396;2023-02-12T02:16:59;18.00;;;7.32;;
54849;SDS011;47660;51.334;12.396;2023-02-12T02:22:40;18.90;;;7.60;;
54849;SDS011;47660;51.334;12.396;2023-02-12T02:25:41;18.45;;;6.68;;
54849;SDS011;47660;51.334;12.396;2023-02-12T02:33:58;16.00;;;7.25;;
54849;SDS011;47660;51.334;12.396;2023-02-12T02:39:01;21.33;;;8.05;;
54849;SDS011;47660;51.334;12.396;2023-02-12T02:45:10;18.90;;;6.35;;
54849;SDS011;47660;51.334;12.396;2023-02-12T02:47:38;16.35;;;7.13;;
54849;SDS011;47660;51.334;12.396;2023-02-12T02:50:16;17.90;;;7.45;;
54849;SDS011;47660;51.334;12.396;2023-02-12T02:52:54;20.27;;;6.32;;
54849;SDS011;47660;51.334;12.396;2023-02-12T02:55:26;15.02;;;6.32;;
54849;SDS011;47660;51.334;12.396;2023-02-12T02:58:08;13.10;;;5.80;;
54849;SDS011;47660;51.334;12.396;2023-02-12T03:03:50;17.77;;;7.90;;
54849;SDS011;47660;51.334;12.396;2023-02-12T03:09:24;23.90;;;7.60;;
54849;SDS011;47660;51.334;12.396;2023-02-12T03:12:20;15.73;;;6.85;;
54849;SDS011;47660;51.334;12.396;2023-02-12T03:14:53;15.30;;;6.97;;
54849;SDS011;47660;51.334;12.396;2023-02-12T03:17:26;18.08;;;7.80;;
54849;SDS011;47660;51.334;12.396;2023-02-12T03:20:07;17.98;;;7.05;;
54849;SDS011;47660;51.334;12.396;2023-02-12T03:22:41;15.75;;;6.78;;
54849;SDS011;47660;51.334;12.396;2023-02-12T03:27:49;20.02;;;7.88;;
54849;SDS011;47660;51.334;12.396;2023-02-12T03:31:09;21.33;;;7.35;;
54849;SDS011;47660;51.334;12.396;2023-02-12T03:39:29;19.90;;;8.23;;
54849;SDS011;47660;51.334;12.396;2023-02-12T03:42:08;11.50;;;5.35;;
54849;SDS011;47660;51.334;12.396;2023-02-12T03:47:39;17.20;;;7.28;;
54849;SDS011;47660;51.334;12.396;2023-02-12T03:50:26;15.68;;;7.03;;
54849;SDS011;47660;51.334;12.396;2023-02-12T03:52:56;16.17;;;5.85;;
54849;SDS011;47660;51.334;12.396;2023-02-12T03:55:22;14.05;;;7.05;;
54849;SDS011;47660;51.334;12.396;2023-02-12T03:57:51;19.45;;;7.70;;
54849;SDS011;47660;51.334;12.396;2023-02-12T04:00:23;12.02;;;4.88;;
54849;SDS011;47660;51.334;12.396;2023-02-12T04:02:49;20.65;;;8.10;;
54849;SDS011;47660;51.334;12.396;2023-02-12T04:05:20;21.63;;;8.05;;
54849;SDS011;47660;51.334;12.396;2023-02-12T04:07:48;22.73;;;8.30;;
54849;SDS011;47660;51.334;12.396;2023-02-12T04:10:15;17.25;;;7.28;;
54849;SDS011;47660;51.334;12.396;2023-02-12T04:26:28;20.63;;;7.03;;
54849;SDS011;47660;51.334;12.396;2023-02-12T04:31:32;24.15;;;7.20;;
54849;SDS011;47660;51.334;12.396;2023-02-12T04:36:58;12.77;;;5.28;;
54849;SDS011;47660;51.334;12.396;2023-02-12T04:39:28;17.20;;;5.35;;
54849;SDS011;47660;51.334;12.396;2023-02-12T04:41:57;20.20;;;8.30;;
54849;SDS011;47660;51.334;12.396;2023-02-12T04:44:25;20.27;;;7.75;;
54849;SDS011;47660;51.334;12.396;2023-02-12T04:46:54;17.35;;;6.95;;
54849;SDS011;47660;51.334;12.396;2023-02-12T04:49:20;16.35;;;5.72;;
54849;SDS011;47660;51.334;12.396;2023-02-12T04:51:47;15.70;;;6.60;;
54849;SDS011;47660;51.334;12.396;2023-02-12T04:54:14;18.27;;;6.63;;
54849;SDS011;47660;51.334;12.396;2023-02-12T04:56:40;17.55;;;5.75;;
54849;SDS011;47660;51.334;12.396;2023-02-12T04:59:06;19.50;;;7.22;;
54849;SDS011;47660;51.334;12.396;2023-02-12T05:01:33;17.15;;;7.25;;
54849;SDS011;47660;51.334;12.396;2023-02-12T05:03:59;23.67;;;8.15;;
54849;SDS011;47660;51.334;12.396;2023-02-12T05:06:25;20.55;;;6.78;;
54849;SDS011;47660;51.334;12.396;2023-02-12T05:08:53;16.70;;;6.80;;
54849;SDS011;47660;51.334;12.396;2023-02-12T05:11:18;16.77;;;7.18;;
54849;SDS011;47660;51.334;12.396;2023-02-12T05:13:47;19.23;;;7.38;;
54849;SDS011;47660;51.334;12.396;2023-02-12T05:16:16;15.85;;;6.22;;
54849;SDS011;47660;51.334;12.396;2023-02-12T05:18:44;20.23;;;7.07;;
54849;SDS011;47660;51.334;12.396;2023-02-12T05:21:10;14.77;;;5.43;;
54849;SDS011;47660;51.334;12.396;2023-02-12T05:23:38;19.48;;;7.35;;
54849;SDS011;47660;51.334;12.396;2023-02-12T05:26:07;17.05;;;6.53;;
54849;SDS011;47660;51.334;12.396;2023-02-12T05:28:39;20.45;;;7.70;;
54849;SDS011;47660;51.334;12.396;2023-02-12T05:31:13;16.88;;;7.00;;
54849;SDS011;47660;51.334;12.396;2023-02-12T05:33:43;14.60;;;6.80;;
54849;SDS011;47660;51.334;12.396;2023-02-12T05:36:11;18.40;;;6.97;;
54849;SDS011;47660;51.334;12.396;2023-02-12T05:38:41;21.05;;;7.22;;
54849;SDS011;47660;51.334;12.396;2023-02-12T05:41:08;18.33;;;7.95;;
54849;SDS011;47660;51.334;12.396;2023-02-12T05:43:38;17.83;;;7.22;;
54849;SDS011;47660;51.334;12.396;2023-02-12T05:46:05;20.17;;;7.60;;
54849;SDS011;47660;51.334;12.396;2023-02-12T05:48:31;17.63;;;6.90;;
54849;SDS011;47660;51.334;12.396;2023-02-12T05:51:01;16.88;;;6.68;;
54849;SDS011;47660;51.334;12.396;2023-02-12T05:53:41;15.82;;;6.18;;
54849;SDS011;47660;51.334;12.396;2023-02-12T05:56:17;23.63;;;7.13;;
54849;SDS011;47660;51.334;12.396;2023-02-12T05:58:50;21.40;;;7.88;;
54849;SDS011;47660;51.334;12.396;2023-02-12T06:01:28;23.95;;;7.43;;
54849;SDS011;47660;51.334;12.396;2023-02-12T06:03:54;17.13;;;7.35;;
54849;SDS011;47660;51.334;12.396;2023-02-12T06:06:19;12.95;;;6.47;;
54849;SDS011;47660;51.334;12.396;2023-02-12T06:08:49;16.38;;;6.22;;
54849;SDS011;47660;51.334;12.396;2023-02-12T06:11:14;19.08;;;7.93;;
54849;SDS011;47660;51.334;12.396;2023-02-12T06:13:40;17.40;;;6.78;;
54849;SDS011;47660;51.334;12.396;2023-02-12T06:16:06;16.58;;;6.82;;
54849;SDS011;47660;51.334;12.396;2023-02-12T06:18:46;15.93;;;6.57;;
54849;SDS011;47660;51.334;12.396;2023-02-12T06:21:12;15.70;;;6.50;;
54849;SDS011;47660;51.334;12.396;2023-02-12T06:23:38;12.77;;;5.90;;
54849;SDS011;47660;51.334;12.396;2023-02-12T06:26:04;18.33;;;7.97;;
54849;SDS011;47660;51.334;12.396;2023-02-12T06:28:30;19.05;;;7.68;;
54849;SDS011;47660;51.334;12.396;2023-02-12T06:30:55;18.10;;;6.60;;
54849;SDS011;47660;51.334;12.396;2023-02-12T06:33:21;17.15;;;6.80;;
54849;SDS011;47660;51.334;12.396;2023-02-12T06:35:46;15.93;;;6.80;;
54849;SDS011;47660;51.334;12.396;2023-02-12T06:38:11;13.57;;;5.78;;
54849;SDS011;47660;51.334;12.396;2023-02-12T06:40:40;15.18;;;6.15;;
54849;SDS011;47660;51.334;12.396;2023-02-12T06:43:05;17.08;;;6.65;;
54849;SDS011;47660;51.334;12.396;2023-02-12T06:45:31;15.57;;;5.72;;
54849;SDS011;47660;51.334;12.396;2023-02-12T06:47:57;20.15;;;7.25;;
54849;SDS011;47660;51.334;12.396;2023-02-12T06:50:23;19.65;;;7.82;;
54849;SDS011;47660;51.334;12.396;2023-02-12T06:52:49;19.52;;;6.80;;
54849;SDS011;47660;51.334;12.396;2023-02-12T06:55:14;19.58;;;6.97;;
54849;SDS011;47660;51.334;12.396;2023-02-12T06:57:40;17.60;;;6.28;;
54849;SDS011;47660;51.334;12.396;2023-02-12T07:00:09;15.90;;;6.68;;
54849;SDS011;47660;51.334;12.396;2023-02-12T07:02:37;19.05;;;7.55;;
54849;SDS011;47660;51.334;12.396;2023-02-12T07:05:03;21.38;;;6.60;;
54849;SDS011;47660;51.334;12.396;2023-02-12T07:07:28;15.75;;;6.97;;
54849;SDS011;47660;51.334;12.396;2023-02-12T07:09:54;17.55;;;7.57;;
54849;SDS011;47660;51.334;12.396;2023-02-12T07:12:20;12.52;;;5.05;;
54849;SDS011;47660;51.334;12.396;2023-02-12T07:14:45;15.60;;;6.60;;
54849;SDS011;47660;51.334;12.396;2023-02-12T07:17:10;17.23;;;7.60;;
54849;SDS011;47660;51.334;12.396;2023-02-12T07:19:37;18.02;;;7.35;;
54849;SDS011;47660;51.334;12.396;2023-02-12T07:22:07;18.38;;;6.80;;
54849;SDS011;47660;51.334;12.396;2023-02-12T07:24:33;17.80;;;6.82;;
54849;SDS011;47660;51.334;12.396;2023-02-12T07:26:58;16.67;;;6.88;;
54849;SDS011;47660;51.334;12.396;2023-02-12T07:29:24;17.08;;;6.90;;
54849;SDS011;47660;51.334;12.396;2023-02-12T07:31:50;16.23;;;6.63;;
54849;SDS011;47660;51.334;12.396;2023-02-12T07:34:17;14.48;;;6.65;;
54849;SDS011;47660;51.334;12.396;2023-02-12T07:36:48;19.73;;;6.75;;
54849;SDS011;47660;51.334;12.396;2023-02-12T07:39:17;17.10;;;6.63;;
54849;SDS011;47660;51.334;12.396;2023-02-12T07:41:42;15.48;;;6.55;;
54849;SDS011;47660;51.334;12.396;2023-02-12T07:44:10;19.55;;;7.10;;
54849;SDS011;47660;51.334;12.396;2023-02-12T07:46:38;14.35;;;6.10;;
54849;SDS011;47660;51.334;12.396;2023-02-12T07:49:06;13.18;;;5.93;;
54849;SDS011;47660;51.334;12.396;2023-02-12T07:51:35;14.88;;;6.13;;
54849;SDS011;47660;51.334;12.396;2023-02-12T07:54:01;16.52;;;6.72;;
54849;SDS011;47660;51.334;12.396;2023-02-12T07:56:28;17.73;;;7.03;;
54849;SDS011;47660;51.334;12.396;2023-02-12T07:58:57;14.50;;;6.82;;
54849;SDS011;47660;51.334;12.396;2023-02-12T08:01:30;11.77;;;5.93;;
54849;SDS011;47660;51.334;12.396;2023-02-12T08:04:07;13.70;;;5.45;;
54849;SDS011;47660;51.334;12.396;2023-02-12T08:06:38;13.63;;;5.90;;
54849;SDS011;47660;51.334;12.396;2023-02-12T08:09:07;10.40;;;4.65;;
54849;SDS011;47660;51.334;12.396;2023-02-12T08:11:36;15.07;;;6.05;;
54849;SDS011;47660;51.334;12.396;2023-02-12T08:14:03;16.42;;;5.43;;
54849;SDS011;47660;51.334;12.396;2023-02-12T08:16:29;10.77;;;5.30;;
54849;SDS011;47660;51.334;12.396;2023-02-12T08:18:56;11.05;;;5.07;;
54849;SDS011;47660;51.334;12.396;2023-02-12T08:21:23;10.50;;;4.53;;
54849;SDS011;47660;51.334;12.396;2023-02-12T08:23:53;8.82;;;4.18;;
54849;SDS011;47660;51.334;12.396;2023-02-12T08:26:21;14.50;;;5.20;;
54849;SDS011;47660;51.334;12.396;2023-02-12T08:31:48;13.88;;;5.65;;
54849;SDS011;47660;51.334;12.396;2023-02-12T08:34:21;12.30;;;5.00;;
54849;SDS011;47660;51.334;12.396;2023-02-12T08:36:48;9.70;;;4.28;;
54849;SDS011;47660;51.334;12.396;2023-02-12T08:39:15;11.80;;;4.95;;
54849;SDS011;47660;51.334;12.396;2023-02-12T08:41:42;14.95;;;6.20;;
54849;SDS011;47660;51.334;12.396;2023-02-12T08:44:10;13.23;;;5.80;;
54849;SDS011;47660;51.334;12.396;2023-02-12T08:46:38;11.60;;;6.20;;
54849;SDS011;47660;51.334;12.396;2023-02-12T08:49:07;13.27;;;4.90;;
54849;SDS011;47660;51.334;12.396;2023-02-12T08:51:37;12.13;;;4.80;;
54849;SDS011;47660;51.334;12.396;2023-02-12T08:54:06;17.55;;;6.63;;
54849;SDS011;47660;51.334;12.396;2023-02-12T08:56:38;14.80;;;5.75;;
54849;SDS011;47660;51.334;12.396;2023-02-12T08:59:04;14.88;;;5.45;;
54849;SDS011;47660;51.334;12.396;2023-02-12T09:01:32;11.95;;;5.40;;
54849;SDS011;47660;51.334;12.396;2023-02-12T09:03:59;18.67;;;6.50;;
54849;SDS011;47660;51.334;12.396;2023-02-12T09:06:25;15.73;;;6.53;;
54849;SDS011;47660;51.334;12.396;2023-02-12T09:08:52;16.10;;;5.88;;
54849;SDS011;47660;51.334;12.396;2023-02-12T09:11:22;14.00;;;5.53;;
54849;SDS011;47660;51.334;12.396;2023-02-12T09:13:57;13.43;;;6.00;;
54849;SDS011;47660;51.334;12.396;2023-02-12T09:16:29;16.95;;;6.40;;
54849;SDS011;47660;51.334;12.396;2023-02-12T09:18:56;15.23;;;6.38;;
54849;SDS011;47660;51.334;12.396;2023-02-12T09:21:22;12.98;;;6.28;;
54849;SDS011;47660;51.334;12.396;2023-02-12T09:23:48;17.38;;;6.47;;
54849;SDS011;47660;51.334;12.396;2023-02-12T09:26:16;16.88;;;6.38;;
54849;SDS011;47660;51.334;12.396;2023-02-12T09:28:45;20.30;;;7.43;;
54849;SDS011;47660;51.334;12.396;2023-02-12T09:31:14;17.40;;;6.38;;
54849;SDS011;47660;51.334;12.396;2023-02-12T09:33:44;15.85;;;6.72;;
54849;SDS011;47660;51.334;12.396;2023-02-12T09:36:11;15.70;;;6.60;;
54849;SDS011;47660;51.334;12.396;2023-02-12T09:38:39;18.30;;;7.30;;
54849;SDS011;47660;51.334;12.396;2023-02-12T09:46:54;17.23;;;6.18;;
54849;SDS011;47660;51.334;12.396;2023-02-12T09:49:39;14.75;;;5.28;;
54849;SDS011;47660;51.334;12.396;2023-02-12T09:52:15;16.05;;;6.10;;
54849;SDS011;47660;51.334;12.396;2023-02-12T09:54:45;14.10;;;5.65;;
54849;SDS011;47660;51.334;12.396;2023-02-12T09:57:34;14.70;;;6.15;;
54849;SDS011;47660;51.334;12.396;2023-02-12T10:00:06;14.73;;;6.00;;
54849;SDS011;47660;51.334;12.396;2023-02-12T10:02:41;13.38;;;5.32;;
54849;SDS011;47660;51.334;12.396;2023-02-12T10:05:21;11.77;;;5.45;;
54849;SDS011;47660;51.334;12.396;2023-02-12T10:08:21;9.55;;;4.50;;
54849;SDS011;47660;51.334;12.396;2023-02-12T10:13:55;14.80;;;5.20;;
54849;SDS011;47660;51.334;12.396;2023-02-12T10:16:39;14.75;;;6.20;;
54849;SDS011;47660;51.334;12.396;2023-02-12T10:27:08;10.15;;;4.53;;
54849;SDS011;47660;51.334;12.396;2023-02-12T10:29:42;14.48;;;5.45;;
54849;SDS011;47660;51.334;12.396;2023-02-12T10:34:44;14.25;;;5.72;;
54849;SDS011;47660;51.334;12.396;2023-02-12T10:37:19;12.93;;;5.70;;
54849;SDS011;47660;51.334;12.396;2023-02-12T10:40:04;10.35;;;4.53;;
54849;SDS011;47660;51.334;12.396;2023-02-12T10:45:11;12.18;;;5.50;;
54849;SDS011;47660;51.334;12.396;2023-02-12T10:47:39;15.38;;;5.25;;
54849;SDS011;47660;51.334;12.396;2023-02-12T10:50:15;13.60;;;5.13;;
54849;SDS011;47660;51.334;12.396;2023-02-12T10:52:47;11.20;;;4.93;;
54849;SDS011;47660;51.334;12.396;2023-02-12T10:55:24;12.85;;;5.07;;
54849;SDS011;47660;51.334;12.396;2023-02-12T10:57:52;13.52;;;5.25;;
54849;SDS011;47660;51.334;12.396;2023-02-12T11:00:31;16.92;;;5.53;;
54849;SDS011;47660;51.334;12.396;2023-02-12T11:03:02;11.75;;;4.63;;
54849;SDS011;47660;51.334;12.396;2023-02-12T11:05:44;10.65;;;4.53;;
54849;SDS011;47660;51.334;12.396;2023-02-12T11:08:32;11.93;;;5.13;;
54849;SDS011;47660;51.334;12.396;2023-02-12T11:13:45;16.77;;;5.78;;
54849;SDS011;47660;51.334;12.396;2023-02-12T11:16:30;11.35;;;4.85;;
54849;SDS011;47660;51.334;12.396;2023-02-12T11:19:03;13.27;;;4.90;;
54849;SDS011;47660;51.334;12.396;2023-02-12T11:21:31;9.13;;;4.35;;
54849;SDS011;47660;51.334;12.396;2023-02-12T11:23:57;12.68;;;4.45;;
54849;SDS011;47660;51.334;12.396;2023-02-12T11:26:45;13.77;;;4.93;;
54849;SDS011;47660;51.334;12.396;2023-02-12T11:29:22;8.98;;;4.35;;
54849;SDS011;47660;51.334;12.396;2023-02-12T11:32:01;10.80;;;4.07;;
54849;SDS011;47660;51.334;12.396;2023-02-12T11:34:34;7.22;;;4.05;;
54849;SDS011;47660;51.334;12.396;2023-02-12T11:37:00;9.60;;;4.38;;
54849;SDS011;47660;51.334;12.396;2023-02-12T11:39:32;10.30;;;3.97;;
54849;SDS011;47660;51.334;12.396;2023-02-12T11:42:19;9.70;;;4.18;;
54849;SDS011;47660;51.334;12.396;2023-02-12T11:44:55;7.75;;;3.72;;
54849;SDS011;47660;51.334;12.396;2023-02-12T11:47:26;10.68;;;3.80;;
54849;SDS011;47660;51.334;12.396;2023-02-12T11:52:31;8.63;;;4.57;;
54849;SDS011;47660;51.334;12.396;2023-02-12T11:55:00;10.05;;;4.80;;
54849;SDS011;47660;51.334;12.396;2023-02-12T11:57:44;8.88;;;3.47;;
54849;SDS011;47660;51.334;12.396;2023-02-12T12:02:52;7.80;;;3.53;;
54849;SDS011;47660;51.334;12.396;2023-02-12T12:11:04;11.93;;;4.63;;
54849;SDS011;47660;51.334;12.396;2023-02-12T12:13:36;9.32;;;4.40;;
54849;SDS011;47660;51.334;12.396;2023-02-12T12:16:12;9.68;;;3.97;;
54849;SDS011;47660;51.334;12.396;2023-02-12T12:19:11;9.27;;;4.15;;
54849;SDS011;47660;51.334;12.396;2023-02-12T12:22:10;7.07;;;3.22;;
54849;SDS011;47660;51.334;12.396;2023-02-12T12:24:52;10.00;;;3.45;;
54849;SDS011;47660;51.334;12.396;2023-02-12T12:27:25;7.40;;;3.45;;
54849;SDS011;47660;51.334;12.396;2023-02-12T12:30:18;11.13;;;4.00;;
54849;SDS011;47660;51.334;12.396;2023-02-12T12:32:53;9.35;;;4.60;;
54849;SDS011;47660;51.334;12.396;2023-02-12T12:35:26;14.20;;;4.30;;
54849;SDS011;47660;51.334;12.396;2023-02-12T12:38:06;12.57;;;4.80;;
54849;SDS011;47660;51.334;12.396;2023-02-12T12:46:33;10.90;;;4.57;;
54849;SDS011;47660;51.334;12.396;2023-02-12T13:04:08;11.20;;;4.97;;
54849;SDS011;47660;51.334;12.396;2023-02-12T13:12:31;15.50;;;6.13;;
54849;SDS011;47660;51.334;12.396;2023-02-12T13:15:08;14.80;;;5.53;;
54849;SDS011;47660;51.334;12.396;2023-02-12T13:18:18;17.73;;;7.13;;
54849;SDS011;47660;51.334;12.396;2023-02-12T13:23:54;13.98;;;5.85;;
54849;SDS011;47660;51.334;12.396;2023-02-12T13:26:30;17.95;;;6.35;;
54849;SDS011;47660;51.334;12.396;2023-02-12T13:31:53;15.48;;;5.95;;
54849;SDS011;47660;51.334;12.396;2023-02-12T13:34:22;17.33;;;5.95;;
54849;SDS011;47660;51.334;12.396;2023-02-12T13:36:52;16.10;;;6.30;;
54849;SDS011;47660;51.334;12.396;2023-02-12T13:45:05;19.63;;;6.47;;
54849;SDS011;47660;51.334;12.396;2023-02-12T13:56:05;20.17;;;6.38;;
54849;SDS011;47660;51.334;12.396;2023-02-12T14:03:39;17.77;;;6.80;;
54849;SDS011;47660;51.334;12.396;2023-02-12T14:06:09;17.13;;;6.25;;
54849;SDS011;47660;51.334;12.396;2023-02-12T14:08:36;19.98;;;6.25;;
54849;SDS011;47660;51.334;12.396;2023-02-12T14:11:08;15.75;;;5.93;;
54849;SDS011;47660;51.334;12.396;2023-02-12T14:13:47;14.60;;;5.97;;
54849;SDS011;47660;51.334;12.396;2023-02-12T14:16:18;17.60;;;6.10;;
54849;SDS011;47660;51.334;12.396;2023-02-12T14:18:52;20.80;;;8.27;;
54849;SDS011;47660;51.334;12.396;2023-02-12T14:21:56;17.83;;;6.43;;
54849;SDS011;47660;51.334;12.396;2023-02-12T14:25:09;13.77;;;5.93;;
54849;SDS011;47660;51.334;12.396;2023-02-12T14:27:55;17.60;;;5.85;;
54849;SDS011;47660;51.334;12.396;2023-02-12T14:37:55;19.63;;;5.95;;
54849;SDS011;47660;51.334;12.396;2023-02-12T14:51:29;16.67;;;6.25;;
54849;SDS011;47660;51.334;12.396;2023-02-12T14:54:00;18.75;;;7.15;;
54849;SDS011;47660;51.334;12.396;2023-02-12T14:56:28;18.88;;;6.72;;
54849;SDS011;47660;51.334;12.396;2023-02-12T14:59:05;21.40;;;7.05;;
54849;SDS011;47660;51.334;12.396;2023-02-12T15:01:41;21.55;;;6.72;;
54849;SDS011;47660;51.334;12.396;2023-02-12T15:04:10;18.00;;;6.32;;
54849;SDS011;47660;51.334;12.396;2023-02-12T15:06:48;22.40;;;8.18;;
54849;SDS011;47660;51.334;12.396;2023-02-12T15:09:24;22.73;;;7.32;;
54849;SDS011;47660;51.334;12.396;2023-02-12T15:12:10;17.10;;;6.35;;
54849;SDS011;47660;51.334;12.396;2023-02-12T15:14:45;16.48;;;6.68;;
54849;SDS011;47660;51.334;12.396;2023-02-12T15:19:56;19.92;;;6.60;;
54849;SDS011;47660;51.334;12.396;2023-02-12T15:24:52;22.77;;;6.97;;
54849;SDS011;47660;51.334;12.396;2023-02-12T15:27:18;16.85;;;6.18;;
54849;SDS011;47660;51.334;12.396;2023-02-12T15:29:46;16.38;;;6.43;;
54849;SDS011;47660;51.334;12.396;2023-02-12T15:32:24;19.25;;;6.40;;
54849;SDS011;47660;51.334;12.396;2023-02-12T15:34:55;19.88;;;7.10;;
54849;SDS011;47660;51.334;12.396;2023-02-12T15:37:22;16.98;;;6.32;;
54849;SDS011;47660;51.334;12.396;2023-02-12T15:39:53;17.65;;;6.57;;
54849;SDS011;47660;51.334;12.396;2023-02-12T15:42:30;16.55;;;6.03;;
54849;SDS011;47660;51.334;12.396;2023-02-12T15:45:31;19.98;;;6.20;;
54849;SDS011;47660;51.334;12.396;2023-02-12T15:47:58;22.08;;;6.65;;
54849;SDS011;47660;51.334;12.396;2023-02-12T15:50:29;17.83;;;5.57;;
54849;SDS011;47660;51.334;12.396;2023-02-12T15:52:59;21.27;;;7.15;;
54849;SDS011;47660;51.334;12.396;2023-02-12T15:55:26;15.40;;;5.82;;
54849;SDS011;47660;51.334;12.396;2023-02-12T15:57:55;18.67;;;6.40;;
54849;SDS011;47660;51.334;12.396;2023-02-12T16:00:58;18.60;;;7.15;;
54849;SDS011;47660;51.334;12.396;2023-02-12T16:03:20;19.58;;;6.15;;
54849;SDS011;47660;51.334;12.396;2023-02-12T16:05:47;16.55;;;6.55;;
54849;SDS011;47660;51.334;12.396;2023-02-12T16:08:14;21.85;;;7.40;;
54849;SDS011;47660;51.334;12.396;2023-02-12T16:10:44;18.67;;;7.03;;
54849;SDS011;47660;51.334;12.396;2023-02-12T16:13:28;19.25;;;6.35;;
54849;SDS011;47660;51.334;12.396;2023-02-12T16:18:45;17.05;;;6.85;;
54849;SDS011;47660;51.334;12.396;2023-02-12T16:21:12;19.70;;;6.50;;
54849;SDS011;47660;51.334;12.396;2023-02-12T16:23:44;22.45;;;7.43;;
54849;SDS011;47660;51.334;12.396;2023-02-12T16:26:15;19.65;;;6.75;;
54849;SDS011;47660;51.334;12.396;2023-02-12T16:28:54;18.17;;;7.70;;
54849;SDS011;47660;51.334;12.396;2023-02-12T16:31:22;20.33;;;7.97;;
54849;SDS011;47660;51.334;12.396;2023-02-12T16:33:51;18.95;;;7.05;;
54849;SDS011;47660;51.334;12.396;2023-02-12T16:38:47;21.15;;;7.20;;
54849;SDS011;47660;51.334;12.396;2023-02-12T16:43:46;20.80;;;7.82;;
54849;SDS011;47660;51.334;12.396;2023-02-12T16:46:12;23.40;;;8.20;;
54849;SDS011;47660;51.334;12.396;2023-02-12T16:48:41;21.50;;;8.43;;
54849;SDS011;47660;51.334;12.396;2023-02-12T16:51:23;25.40;;;9.13;;
54849;SDS011;47660;51.334;12.396;2023-02-12T16:54:01;27.17;;;8.45;;
54849;SDS011;47660;51.334;12.396;2023-02-12T16:56:29;22.98;;;7.95;;
54849;SDS011;47660;51.334;12.396;2023-02-12T16:58:58;21.55;;;8.27;;
54849;SDS011;47660;51.334;12.396;2023-02-12T17:04:00;24.02;;;8.50;;
54849;SDS011;47660;51.334;12.396;2023-02-12T17:06:34;26.75;;;9.27;;
54849;SDS011;47660;51.334;12.396;2023-02-12T17:08:59;26.95;;;8.88;;
54849;SDS011;47660;51.334;12.396;2023-02-12T17:11:25;25.67;;;9.73;;
54849;SDS011;47660;51.334;12.396;2023-02-12T17:13:52;26.58;;;10.07;;
54849;SDS011;47660;51.334;12.396;2023-02-12T17:16:19;29.38;;;10.15;;
54849;SDS011;47660;51.334;12.396;2023-02-12T17:18:45;28.55;;;10.80;;
54849;SDS011;47660;51.334;12.396;2023-02-12T17:21:19;25.95;;;9.95;;
54849;SDS011;47660;51.334;12.396;2023-02-12T17:23:48;30.17;;;10.27;;
54849;SDS011;47660;51.334;12.396;2023-02-12T17:26:14;26.30;;;10.10;;
54849;SDS011;47660;51.334;12.396;2023-02-12T17:28:39;32.15;;;11.93;;
54849;SDS011;47660;51.334;12.396;2023-02-12T17:31:05;43.70;;;18.25;;
54849;SDS011;47660;51.334;12.396;2023-02-12T17:33:34;29.63;;;10.38;;
54849;SDS011;47660;51.334;12.396;2023-02-12T17:36:00;21.13;;;8.63;;
54849;SDS011;47660;51.334;12.396;2023-02-12T17:38:28;22.77;;;9.50;;
54849;SDS011;47660;51.334;12.396;2023-02-12T17:40:58;26.45;;;9.13;;